createdAt,value
2022-10-24T00:02:53.001Z,100.00
2022-10-24T00:07:58.706Z,100.00
2022-10-24T00:13:03.395Z,100.00
2022-10-24T00:18:10.792Z,100.00
2022-10-24T00:23:15.728Z,100.00
2022-10-24T00:28:20.543Z,100.00
2022-10-24T00:33:28.599Z,100.00
2022-10-24T00:38:33.402Z,100.00
2022-10-24T00:43:38.161Z,100.00
2022-10-24T00:48:49.694Z,100.00
2022-10-24T00:59:04.879Z,100.00
2022-10-24T01:04:13.980Z,100.00
2022-10-24T01:09:33.994Z,100.00
2022-10-24T01:14:48.341Z,100.00
2022-10-24T01:20:26.147Z,100.00
2022-10-24T01:25:43.746Z,100.00
2022-10-24T01:30:55.469Z,100.00
2022-10-24T01:36:08.897Z,100.00
2022-10-24T01:41:16.726Z,100.00
2022-10-24T01:46:28.845Z,100.00
2022-10-24T01:51:36.459Z,100.00
2022-10-24T01:56:41.471Z,100.00
2022-10-24T02:01:48.959Z,100.00
2022-10-24T02:06:55.020Z,100.00
2022-10-24T02:12:01.876Z,100.00
2022-10-24T02:17:09.550Z,100.00
2022-10-24T02:22:22.089Z,100.00
2022-10-24T02:27:31.971Z,100.00
2022-10-24T02:32:42.825Z,100.00
2022-10-24T02:37:52.887Z,100.00
2022-10-24T02:43:01.175Z,100.00
2022-10-24T02:48:11.483Z,100.00
2022-10-24T02:53:17.868Z,100.00
2022-10-24T02:58:22.657Z,100.00
2022-10-24T03:03:30.034Z,100.00
2022-10-24T03:08:34.823Z,100.00
2022-10-24T03:13:39.857Z,100.00
2022-10-24T03:18:47.265Z,100.00
2022-10-24T03:23:52.497Z,100.00
2022-10-24T03:28:57.253Z,100.00
2022-10-24T03:34:04.647Z,100.00
2022-10-24T03:39:09.872Z,100.00
2022-10-24T03:44:14.820Z,100.00
2022-10-24T03:49:22.261Z,100.00
2022-10-24T03:54:27.338Z,100.00
2022-10-24T03:59:32.678Z,100.00
2022-10-24T04:04:40.119Z,100.00
2022-10-24T04:09:45.152Z,100.00
2022-10-24T04:14:49.832Z,100.00
2022-10-24T04:19:57.666Z,100.00
2022-10-24T04:25:02.613Z,100.00
2022-10-24T04:30:10.668Z,100.00
2022-10-24T04:35:21.490Z,100.00
2022-10-24T04:40:26.546Z,100.00
2022-10-24T04:45:31.449Z,100.00
2022-10-24T04:50:39.468Z,100.00
2022-10-24T04:55:44.407Z,100.00
2022-10-24T05:00:50.331Z,100.00
2022-10-24T05:06:00.284Z,100.00
2022-10-24T05:11:05.315Z,100.00
2022-10-24T05:16:10.242Z,100.00
2022-10-24T05:21:17.715Z,100.00
2022-10-24T05:26:22.935Z,100.00
2022-10-24T05:31:27.906Z,100.00
2022-10-24T05:36:35.567Z,100.00
2022-10-24T05:41:44.685Z,100.00
2022-10-24T05:46:52.677Z,100.00
2022-10-24T05:52:00.047Z,100.00
2022-10-24T05:57:05.005Z,100.00
2022-10-24T06:02:10.420Z,100.00
2022-10-24T06:07:17.931Z,100.00
2022-10-24T06:12:24.802Z,100.00
2022-10-24T06:17:29.825Z,100.00
2022-10-24T06:22:37.560Z,100.00
2022-10-24T06:27:42.953Z,100.00
2022-10-24T06:32:48.017Z,100.00
2022-10-24T06:37:55.742Z,100.00
2022-10-24T06:43:00.923Z,100.00
2022-10-24T06:48:06.131Z,100.00
2022-10-24T06:53:16.074Z,100.00
2022-10-24T06:58:22.974Z,100.00
2022-10-24T07:03:27.769Z,100.00
2022-10-24T07:08:35.686Z,100.00
2022-10-24T07:13:40.918Z,100.00
2022-10-24T07:18:46.883Z,100.00
2022-10-24T07:23:54.687Z,100.00
2022-10-24T07:29:03.445Z,100.00
2022-10-24T07:34:10.912Z,100.00
2022-10-24T07:39:18.526Z,100.00
2022-10-24T07:44:25.715Z,100.00
2022-10-24T07:49:32.923Z,100.00
2022-10-24T07:54:41.307Z,100.00
2022-10-24T07:59:46.151Z,100.00
2022-10-24T08:04:50.972Z,100.00
2022-10-24T08:09:59.121Z,100.00
2022-10-24T08:15:03.825Z,100.00
2022-10-24T08:20:11.057Z,100.00
2022-10-24T08:25:18.708Z,100.00
2022-10-24T08:30:24.696Z,100.00
2022-10-24T08:35:29.510Z,100.00
2022-10-24T08:40:36.969Z,100.00
2022-10-24T08:45:52.705Z,100.00
2022-10-24T08:51:05.506Z,100.00
2022-10-24T08:56:15.145Z,100.00
2022-10-24T09:01:30.218Z,100.00
2022-10-24T09:06:36.194Z,100.00
2022-10-24T09:11:49.924Z,100.00
2022-10-24T09:16:59.292Z,100.00
2022-10-24T09:22:05.290Z,100.00
2022-10-24T09:27:17.643Z,100.00
2022-10-24T09:32:26.886Z,100.00
2022-10-24T09:37:37.713Z,100.00
2022-10-24T09:42:57.258Z,100.00
2022-10-24T09:48:06.047Z,100.00
2022-10-24T09:53:25.476Z,100.00
2022-10-24T09:58:35.774Z,100.00
2022-10-24T10:03:41.001Z,100.00
2022-10-24T10:08:53.390Z,100.00
2022-10-24T10:14:20.428Z,100.00
2022-10-24T10:19:25.769Z,100.00
2022-10-24T10:24:40.742Z,100.00
2022-10-24T10:29:48.254Z,100.00
2022-10-24T10:35:00.591Z,100.00
2022-10-24T10:40:19.213Z,100.00
2022-10-24T10:45:37.779Z,100.00
2022-10-24T10:50:48.288Z,100.00
2022-10-24T10:56:04.962Z,100.00
2022-10-24T11:01:23.042Z,100.00
2022-10-24T11:06:44.336Z,100.00
2022-10-24T11:11:54.840Z,100.00
2022-10-24T11:17:11.086Z,100.00
2022-10-24T11:22:23.033Z,100.00
2022-10-24T11:27:34.335Z,100.00
2022-10-24T11:32:47.769Z,100.00
2022-10-24T11:38:06.852Z,100.00
2022-10-24T11:43:21.979Z,100.00
2022-10-24T11:48:37.267Z,100.00
2022-10-24T11:53:57.451Z,100.00
2022-10-24T11:59:04.601Z,100.00
2022-10-24T12:04:47.859Z,100.00
2022-10-24T12:10:14.110Z,100.00
2022-10-24T12:15:40.501Z,100.00
2022-10-24T12:20:54.027Z,100.00
2022-10-24T12:26:07.462Z,100.00
2022-10-24T12:31:25.323Z,100.00
2022-10-24T12:37:01.458Z,100.00
2022-10-24T12:42:17.452Z,100.00
2022-10-24T12:47:43.823Z,100.00
2022-10-24T12:53:07.284Z,100.00
2022-10-24T12:58:27.545Z,100.00
2022-10-24T13:03:56.180Z,100.00
2022-10-24T13:09:16.366Z,100.00
2022-10-24T13:14:58.549Z,100.00
2022-10-24T13:20:20.565Z,91.81
2022-10-24T13:25:34.078Z,93.37
2022-10-24T13:30:39.940Z,89.21
2022-10-24T13:35:47.759Z,91.70
2022-10-24T13:40:53.338Z,92.59
2022-10-24T13:46:12.752Z,88.02
2022-10-24T13:51:28.507Z,87.00
2022-10-24T13:56:38.974Z,84.51
2022-10-24T14:01:45.160Z,85.63
2022-10-24T14:06:52.608Z,84.09
2022-10-24T14:11:59.502Z,84.41
2022-10-24T14:17:23.292Z,83.73
2022-10-24T14:22:40.011Z,82.09
2022-10-24T14:27:45.266Z,82.17
2022-10-24T14:32:50.837Z,83.30
2022-10-24T14:38:00.930Z,83.00
2022-10-24T14:43:06.982Z,81.81
2022-10-24T14:48:24.425Z,81.31
2022-10-24T14:53:32.364Z,81.52
2022-10-24T14:58:39.443Z,82.20
2022-10-24T15:03:58.417Z,83.63
2022-10-24T15:09:08.765Z,84.19
2022-10-24T15:14:36.235Z,84.38
2022-10-24T15:19:56.282Z,84.88
2022-10-24T15:25:05.362Z,85.17
2022-10-24T15:30:16.039Z,86.75
2022-10-24T15:35:23.533Z,88.86
2022-10-24T15:40:33.771Z,90.07
2022-10-24T15:45:38.499Z,90.97
2022-10-24T15:50:48.014Z,90.78
2022-10-24T15:55:55.399Z,91.03
2022-10-24T16:01:02.499Z,91.27
2022-10-24T16:06:07.766Z,91.28
2022-10-24T16:11:15.271Z,91.58
2022-10-24T16:16:20.044Z,92.38
2022-10-24T16:21:25.136Z,93.34
2022-10-24T16:26:32.614Z,94.19
2022-10-24T16:31:37.423Z,94.31
2022-10-24T16:36:43.161Z,93.89
2022-10-24T16:41:50.541Z,94.41
2022-10-24T16:46:55.754Z,94.79
2022-10-24T16:52:00.716Z,95.68
2022-10-24T16:57:08.142Z,96.85
2022-10-24T17:02:14.772Z,97.29
2022-10-24T17:07:19.825Z,97.97
2022-10-24T17:12:27.626Z,98.88
2022-10-24T17:17:33.792Z,99.73
2022-10-24T17:22:40.372Z,99.95
2022-10-24T17:27:48.583Z,100.00
2022-10-24T17:32:53.901Z,100.00
2022-10-24T17:38:17.934Z,100.00
2022-10-24T17:43:27.378Z,100.00
2022-10-24T17:48:32.522Z,100.00
2022-10-24T17:53:37.286Z,100.00
2022-10-24T17:58:44.685Z,100.00
2022-10-24T18:03:49.501Z,100.00
2022-10-24T18:08:55.885Z,100.00
2022-10-24T18:14:03.454Z,100.00
2022-10-24T18:19:08.828Z,100.00
2022-10-24T18:24:13.644Z,100.00
2022-10-24T18:29:21.177Z,100.00
2022-10-24T18:34:26.005Z,100.00
2022-10-24T18:39:31.356Z,100.00
2022-10-24T18:44:39.988Z,100.00
2022-10-24T18:49:47.029Z,100.00
2022-10-24T18:55:04.064Z,100.00
2022-10-24T19:00:21.439Z,100.00
2022-10-24T19:05:42.159Z,100.00
2022-10-24T19:10:48.792Z,100.00
2022-10-24T19:16:00.307Z,100.00
2022-10-24T19:21:06.580Z,100.00
2022-10-24T19:26:16.370Z,100.00
2022-10-24T19:31:26.688Z,100.00
2022-10-24T19:36:34.468Z,100.00
2022-10-24T19:41:39.495Z,100.00
2022-10-24T19:46:46.992Z,100.00
2022-10-24T19:51:54.657Z,100.00
2022-10-24T19:56:59.409Z,100.00
2022-10-24T20:02:10.011Z,100.00
2022-10-24T20:07:17.514Z,100.00
2022-10-24T20:12:23.656Z,100.00
2022-10-24T20:17:31.054Z,100.00
2022-10-24T20:22:35.843Z,100.00
2022-10-24T20:27:41.229Z,100.00
2022-10-24T20:32:48.565Z,100.00
2022-10-24T20:37:53.495Z,100.00
2022-10-24T20:42:58.468Z,100.00
2022-10-24T20:48:06.252Z,100.00
2022-10-24T20:53:11.107Z,100.00
2022-10-24T20:58:16.253Z,100.00
2022-10-24T21:03:24.680Z,100.00
2022-10-24T21:08:29.722Z,100.00
2022-10-24T21:13:34.798Z,100.00
2022-10-24T21:18:42.419Z,100.00
2022-10-24T21:23:48.052Z,100.00
2022-10-24T21:28:59.545Z,100.00
2022-10-24T21:34:23.848Z,100.00
2022-10-24T21:39:29.018Z,100.00
2022-10-24T21:44:33.927Z,100.00
2022-10-24T21:49:41.348Z,100.00
2022-10-24T21:54:46.169Z,100.00
2022-10-24T21:59:51.257Z,100.00
2022-10-24T22:04:58.672Z,100.00
2022-10-24T22:10:04.965Z,100.00
2022-10-24T22:15:10.829Z,100.00
2022-10-24T22:20:18.324Z,100.00
2022-10-24T22:25:23.168Z,100.00
2022-10-24T22:30:27.966Z,100.00
2022-10-24T22:35:39.259Z,100.00
2022-10-24T22:40:46.338Z,100.00
2022-10-24T22:46:00.428Z,100.00
2022-10-24T22:51:08.327Z,100.00
2022-10-24T22:56:19.886Z,100.00
2022-10-24T23:01:34.049Z,100.00
2022-10-24T23:06:47.301Z,100.00
2022-10-24T23:11:52.571Z,100.00
2022-10-24T23:17:01.608Z,100.00
2022-10-24T23:22:18.163Z,100.00
2022-10-24T23:27:34.503Z,100.00
2022-10-24T23:32:41.732Z,100.00
2022-10-24T23:37:51.654Z,100.00
2022-10-24T23:43:00.704Z,100.00
2022-10-24T23:48:21.398Z,100.00
2022-10-24T23:53:39.821Z,100.00
2022-10-24T23:58:44.976Z,100.00
